Clayville, RI (02815)

8:40 AM EDT on July 25, 2016 (GMT -0400)
Atlantic Inland | | Change Station

Elev 505 ft 41.75 °N, 71.67 °W | Updated 12 seconds ago

Partly Cloudy
Partly Cloudy
79.2 °F
Feels Like 82 °F
N
1.8
Wind Variable Wind from SW
Gusts 2.5 mph

Today
High -- | Low -- °F
--% Chance of Precip.
Yesterday
High -- | Low -- °F
Precip. -- in
Pressure 29.96 in
Visibility 10.0 miles
Clouds Few 13000 ft
Few 30000 ft
Heat Index 82 °F
Dew Point 69 °F
Humidity 72%
Rainfall 0.00 in
Snow Depth Not available.
5:34 AM 8:11 PM
Waning Gibbous, 66% visible
METAR KPVD 251151Z 22005KT 10SM FEW130 FEW300 24/20 A2996 RMK AO2 SLP144 T02390200 10239 20200 50001
Pressure 29.96 in
Visibility 10.0 miles
Clouds Few 13000 ft
Few 30000 ft
Heat Index 82 °F
Dew Point 69 °F
Humidity 72%
Rainfall 0.00 in
Snow Depth Not available.
5:34 AM 8:11 PM
Waning Gibbous, 66% visible
METAR KPVD 251151Z 22005KT 10SM FEW130 FEW300 24/20 A2996 RMK AO2 SLP144 T02390200 10239 20200 50001

10-Day Weather Forecast

Almanac

Astronomy

Jul. 25, 2016 Rise Set
Actual Time
Civil Twilight
Nautical Twilight
Astronomical Twilight
Moon
Length of Visible Light
Length of Day
Tomorrow will be .
, % of the Moon is Illuminated

Today's Extremes

State Highs State Lows

Community

WunderPhotos

Upload Photos

1,927,296 photos uploaded!

WunderBlog® & News

Nearby

Air Quality

  Air Quality AQ Index Pollutant
Not available.

Snow Depth

Station Depth Elevation

Earthquake Activity

City Distance Mag. Time & Date
Minimum magnitude displayed is 2.5.

Coastal Water Temperatures

Place Temperature

Stations

Nearby Weather Stations

Station Location Temp. Windchill Dew Point Humidity Wind Precip. Elev Updated Type
                   

Watches & Warnings

There are currently no watches in effect.